Observation data for Graham on 05/25/2019      Previous  Date  Next       Current Mesonet Observations  Soil Data  Daily Summary Page  Observations in Plain Language
KGHS 250500Z 07005KT 21/18 A2997 RMK A01 T02090178  RH  087%=      5-min Rain = 0
KGHS 250505Z 07002KT 21/18 A2997 RMK A01 T02090178  RH  087%=      5-min Rain = 0
KGHS 250510Z 07004KT 21/18 A2997 RMK A01 T02080178  RH  087%=      5-min Rain = 0
KGHS 250515Z 07005KT 21/18 A2997 RMK A01 T02070178  RH  088%=      5-min Rain = 0
KGHS 250520Z 07005KT 21/18 A2997 RMK A01 T02070178  RH  088%=      5-min Rain = 0
KGHS 250525Z 07005KT 21/18 A2997 RMK A01 T02060178  RH  088%=      5-min Rain = 0
KGHS 250530Z 07004KT 21/18 A2997 RMK A01 T02070178  RH  088%=      5-min Rain = 0
KGHS 250535Z 06005KT 21/18 A2997 RMK A01 T02070178  RH  088%=      5-min Rain = 0
KGHS 250540Z 06005KT 21/18 A2997 RMK A01 T02070178  RH  088%=      5-min Rain = 0
KGHS 250545Z 06005KT 21/18 A2997 RMK A01 T02060178  RH  089%=      5-min Rain = 0
KGHS 250550Z 07005KT 21/18 A2996 RMK A01 T02060179  RH  089%=      5-min Rain = 0
KGHS 250555Z 09004KT 21/18 A2996 RMK A01 T02050179  RH  089%=      5-min Rain = 0
KGHS 250600Z 12004KT 21/18 A2996 RMK A01 T02060179  RH  089%=      5-min Rain = 0
KGHS 250605Z 11003KT 21/18 A2996 RMK A01 T02060179  RH  089%=      5-min Rain = 0
KGHS 250610Z 16002KT 21/18 A2996 RMK A01 T02060179  RH  089%=      5-min Rain = 0
KGHS 250615Z 11002KT 21/18 A2996 RMK A01 T02050179  RH  090%=      5-min Rain = 0
KGHS 250620Z 10001KT 20/18 A2996 RMK A01 T02040179  RH  090%=      5-min Rain = 0
KGHS 250625Z 06003KT 20/18 A2996 RMK A01 T02040180  RH  090%=      5-min Rain = 0
KGHS 250630Z 07005KT 21/18 A2996 RMK A01 T02050180  RH  090%=      5-min Rain = 0
KGHS 250635Z 08005KT 21/18 A2996 RMK A01 T02060179  RH  090%=      5-min Rain = 0
KGHS 250640Z 06007KT 21/18 A2996 RMK A01 T02050177  RH  089%=      5-min Rain = 0
KGHS 250645Z 07007KT 20/18 A2995 RMK A01 T02010175  RH  090%=      5-min Rain = 0
KGHS 250650Z 08007KT 20/18 A2995 RMK A01 T01990175  RH  090%=      5-min Rain = 0
KGHS 250655Z 09008KT 20/18 A2995 RMK A01 T01990175  RH  090%=      5-min Rain = 0
KGHS 250700Z 10006KT 20/18 A2995 RMK A01 T02000175  RH  090%=      5-min Rain = 0
KGHS 250705Z 09006KT 20/18 A2995 RMK A01 T02010175  RH  090%=      5-min Rain = 0
KGHS 250710Z 10005KT 20/18 A2995 RMK A01 T02010175  RH  089%=      5-min Rain = 0
KGHS 250715Z 11005KT 20/18 A2995 RMK A01 T02020175  RH  089%=      5-min Rain = 0
KGHS 250720Z 11005KT 20/17 A2995 RMK A01 T02020174  RH  088%=      5-min Rain = 0
KGHS 250725Z 11004KT 20/17 A2995 RMK A01 T02030174  RH  088%=      5-min Rain = 0
KGHS 250730Z 11004KT 20/17 A2995 RMK A01 T02040174  RH  088%=      5-min Rain = 0
KGHS 250735Z 11006KT 20/18 A2995 RMK A01 T02040175  RH  087%=      5-min Rain = 0
KGHS 250740Z 13005KT 21/18 A2995 RMK A01 T02050175  RH  087%=      5-min Rain = 0
KGHS 250745Z 12005KT 21/18 A2995 RMK A01 T02050175  RH  087%=      5-min Rain = 0
KGHS 250750Z 11005KT 21/18 A2995 RMK A01 T02050175  RH  087%=      5-min Rain = 0
KGHS 250755Z 10004KT 21/18 A2994 RMK A01 T02050176  RH  088%=      5-min Rain = 0
KGHS 250800Z 14004KT 21/18 A2995 RMK A01 T02050176  RH  088%=      5-min Rain = 0
KGHS 250805Z 14005KT 21/18 A2995 RMK A01 T02050177  RH  088%=      5-min Rain = 0
KGHS 250810Z 13006KT 20/18 A2995 RMK A01 T02040177  RH  089%=      5-min Rain = 0
KGHS 250815Z 11006KT 20/18 A2994 RMK A01 T02030177  RH  090%=      5-min Rain = 0
KGHS 250820Z 11007KT 20/18 A2994 RMK A01 T02040178  RH  090%=      5-min Rain = 0
KGHS 250825Z 12008KT 21/18 A2994 RMK A01 T02050179  RH  089%=      5-min Rain = 0
KGHS 250830Z 13009KT 21/18 A2994 RMK A01 T02070179  RH  089%=      5-min Rain = 0
KGHS 250835Z 13009KT 21/18 A2994 RMK A01 T02070179  RH  089%=      5-min Rain = 0
KGHS 250840Z 13009KT 21/18 A2994 RMK A01 T02070180  RH  089%=      5-min Rain = 0
KGHS 250845Z 13009KT 21/18 A2994 RMK A01 T02070180  RH  089%=      5-min Rain = 0
KGHS 250850Z 13010KT 21/18 A2994 RMK A01 T02080181  RH  089%=      5-min Rain = 0
KGHS 250855Z 13010KT 21/18 A2994 RMK A01 T02090181  RH  089%=      5-min Rain = 0
KGHS 250900Z 14010KT 21/18 A2994 RMK A01 T02090182  RH  089%=      5-min Rain = 0
KGHS 250905Z 14010KT 21/18 A2994 RMK A01 T02090182  RH  089%=      5-min Rain = 0
KGHS 250910Z 14010G16KT 21/18 A2994 RMK A01 T02090183  RH  089%=      5-min Rain = 0
KGHS 250915Z 14012G18KT 21/18 A2994 RMK A01 T02100182  RH  089%=      5-min Rain = 0
KGHS 250920Z 14015KT 21/18 A2994 RMK A01 T02110181  RH  088%=      5-min Rain = 0
KGHS 250925Z 14014KT 21/18 A2994 RMK A01 T02110181  RH  087%=      5-min Rain = 0
KGHS 250930Z 14014G19KT 21/18 A2994 RMK A01 T02110180  RH  087%=      5-min Rain = 0
KGHS 250935Z 14014KT 21/18 A2994 RMK A01 T02110180  RH  087%=      5-min Rain = 0
KGHS 250940Z 14012KT 21/18 A2994 RMK A01 T02100180  RH  087%=      5-min Rain = 0
KGHS 250945Z 14013G18KT 21/18 A2994 RMK A01 T02090180  RH  088%=      5-min Rain = 0
KGHS 250950Z 14012G17KT 21/18 A2994 RMK A01 T02090180  RH  088%=      5-min Rain = 0
KGHS 250955Z 14011KT 21/18 A2995 RMK A01 T02080180  RH  089%=      5-min Rain = 0
KGHS 251000Z 14010G15KT 21/18 A2995 RMK A01 T02080181  RH  089%=      5-min Rain = 0
KGHS 251005Z 14011KT 21/18 A2994 RMK A01 T02070180  RH  089%=      5-min Rain = 0
KGHS 251010Z 14011KT 21/18 A2994 RMK A01 T02070180  RH  089%=      5-min Rain = 0
KGHS 251015Z 14012KT 21/18 A2994 RMK A01 T02070180  RH  089%=      5-min Rain = 0
KGHS 251020Z 14011KT 21/18 A2995 RMK A01 T02070180  RH  089%=      5-min Rain = 0
KGHS 251025Z 14011KT 21/18 A2995 RMK A01 T02070180  RH  089%=      5-min Rain = 0
KGHS 251030Z 14011G16KT 21/18 A2995 RMK A01 T02070180  RH  089%=      5-min Rain = 0
KGHS 251035Z 14013KT 21/18 A2995 RMK A01 T02070180  RH  089%=      5-min Rain = 0
KGHS 251040Z 14012KT 21/18 A2995 RMK A01 T02070181  RH  090%=      5-min Rain = 0
KGHS 251045Z 14014KT 21/18 A2995 RMK A01 T02070181  RH  090%=      5-min Rain = 0
KGHS 251050Z 14012G18KT 21/18 A2995 RMK A01 T02060181  RH  090%=      5-min Rain = 0
KGHS 251055Z 14013G18KT 21/18 A2996 RMK A01 T02060181  RH  090%=      5-min Rain = 0
KGHS 251100Z 14013KT 21/18 A2996 RMK A01 T02050181  RH  090%=      5-min Rain = 0
KGHS 251105Z 15011KT 20/18 A2996 RMK A01 T02040181  RH  091%=      5-min Rain = 0
KGHS 251110Z 15012KT 20/18 A2996 RMK A01 T02040181  RH  091%=      5-min Rain = 0
KGHS 251115Z 14013KT 20/18 A2996 RMK A01 T02030181  RH  092%=      5-min Rain = 0
KGHS 251120Z 14011G16KT 20/18 A2996 RMK A01 T02020181  RH  092%=      5-min Rain = 0
KGHS 251125Z 14012G17KT 20/18 A2996 RMK A01 T02020181  RH  093%=      5-min Rain = 0
KGHS 251130Z 14012KT 20/18 A2996 RMK A01 T02010181  RH  093%=      5-min Rain = 0
KGHS 251135Z 14014KT 20/18 A2996 RMK A01 T02010181  RH  093%=      5-min Rain = 0
KGHS 251140Z 15013KT 20/18 A2996 RMK A01 T02010182  RH  093%=      5-min Rain = 0
KGHS 251145Z 14012KT 20/18 A2997 RMK A01 T02010182  RH  094%=      5-min Rain = 0
KGHS 251150Z 14011KT 20/18 A2997 RMK A01 T02000182  RH  094%=      5-min Rain = 0
KGHS 251155Z 14012KT 20/18 A2997 RMK A01 T02000182  RH  094%=      5-min Rain = 0
KGHS 251200Z 14013KT 20/18 A2997 RMK A01 T02000182  RH  094%=      5-min Rain = 0
KGHS 251205Z 14011KT 20/18 A2997 RMK A01 T02000182  RH  094%=      5-min Rain = 0
KGHS 251210Z 14012G17KT 20/18 A2997 RMK A01 T02000182  RH  094%=      5-min Rain = 0
KGHS 251215Z 14013KT 20/18 A2997 RMK A01 T02000182  RH  094%=      5-min Rain = 0
KGHS 251220Z 14011KT 20/18 A2997 RMK A01 T01990182  RH  094%=      5-min Rain = 0
KGHS 251225Z 15012KT 20/18 A2998 RMK A01 T01990182  RH  094%=      5-min Rain = 0
KGHS 251230Z 14011KT 20/18 A2998 RMK A01 T01990182  RH  094%=      5-min Rain = 0
KGHS 251235Z 15010KT 20/18 A2998 RMK A01 T01990182  RH  095%=      5-min Rain = 0
KGHS 251240Z 15012G17KT 20/18 A2998 RMK A01 T01990182  RH  095%=      5-min Rain = 0
KGHS 251245Z 15013KT 20/18 A2998 RMK A01 T01990182  RH  095%=      5-min Rain = 0
KGHS 251250Z 15012KT 20/18 A2998 RMK A01 T01990182  RH  095%=      5-min Rain = 0
KGHS 251255Z 14012KT 20/18 A2999 RMK A01 T01990183  RH  095%=      5-min Rain = 0
KGHS 251300Z 14012KT 20/18 A2999 RMK A01 T01990183  RH  095%=      5-min Rain = 0
KGHS 251305Z 15012G17KT 20/18 A2999 RMK A01 T01990183  RH  095%=      5-min Rain = 0
KGHS 251310Z 15012KT 20/18 A2999 RMK A01 T02000183  RH  095%=      5-min Rain = 0
KGHS 251315Z 15011G17KT 20/18 A2999 RMK A01 T02000183  RH  095%=      5-min Rain = 0
KGHS 251320Z 14013G18KT 20/18 A2999 RMK A01 T02000184  RH  095%=      5-min Rain = 0
KGHS 251325Z 14012KT 20/18 A2999 RMK A01 T02000184  RH  095%=      5-min Rain = 0
KGHS 251330Z 15013G18KT 20/18 A2999 RMK A01 T02000184  RH  095%=      5-min Rain = 0
KGHS 251335Z 14013KT 20/18 A2999 RMK A01 T02000184  RH  096%=      5-min Rain = 0
KGHS 251340Z 15013KT 20/18 A30 RMK A01 T02000184  RH  096%=      5-min Rain = 0
KGHS 251345Z 14014G19KT 20/19 A30 RMK A01 T02000185  RH  096%=      5-min Rain = 0
KGHS 251350Z 14015KT 20/19 A30 RMK A01 T02000185  RH  096%=      5-min Rain = 0
KGHS 251355Z 14014G19KT 20/19 A30 RMK A01 T02010185  RH  096%=      5-min Rain = 0
KGHS 251400Z 15013KT 20/19 A30 RMK A01 T02010185  RH  096%=      5-min Rain = 0
KGHS 251405Z 15014KT 20/19 A30 RMK A01 T02010185  RH  096%=      5-min Rain = 0
KGHS 251410Z 15013KT 20/19 A30 RMK A01 T02010186  RH  096%=      5-min Rain = 0
KGHS 251415Z 15012KT 20/19 A3001 RMK A01 T02020186  RH  096%=      5-min Rain = 0
KGHS 251420Z 15014G22KT 20/19 A3001 RMK A01 T02020186  RH  096%=      5-min Rain = 0
KGHS 251425Z 15015KT 20/19 A30 RMK A01 T02020186  RH  095%=      5-min Rain = 0
KGHS 251430Z 16013KT 20/19 A3001 RMK A01 T02030186  RH  095%=      5-min Rain = 0
KGHS 251435Z 15014KT 20/19 A30 RMK A01 T02030187  RH  095%=      5-min Rain = 0
KGHS 251440Z 15014G19KT 20/19 A30 RMK A01 T02040187  RH  095%=      5-min Rain = 0
KGHS 251445Z 16013G18KT 20/19 A3001 RMK A01 T02040187  RH  095%=      5-min Rain = 0
KGHS 251450Z 15014G19KT 20/19 A30 RMK A01 T02040187  RH  095%=      5-min Rain = 0
KGHS 251455Z 15013KT 21/19 A30 RMK A01 T02050187  RH  095%=      5-min Rain = 0
KGHS 251500Z 16012G17KT 21/19 A3001 RMK A01 T02050187  RH  094%=      5-min Rain = 0
KGHS 251505Z 15012KT 21/19 A3001 RMK A01 T02060188  RH  094%=      5-min Rain = 0
KGHS 251510Z 15013KT 21/19 A3001 RMK A01 T02060187  RH  094%=      5-min Rain = 0
KGHS 251515Z 15013G18KT 21/19 A30 RMK A01 T02060187  RH  094%=      5-min Rain = 0
KGHS 251520Z 15016G21KT 21/19 A30 RMK A01 T02070187  RH  094%=      5-min Rain = 0
KGHS 251525Z 15019KT 21/19 A30 RMK A01 T02060187  RH  093%=      5-min Rain = 0
KGHS 251530Z 15017G22KT 21/19 A30 RMK A01 T02070187  RH  093%=      5-min Rain = 0
KGHS 251535Z 16017G22KT 21/19 A30 RMK A01 T02070187  RH  093%=      5-min Rain = 0
KGHS 251540Z 15014G19KT 21/19 A3001 RMK A01 T02070187  RH  093%=      5-min Rain = 0
KGHS 251545Z 15016G21KT 21/19 A3001 RMK A01 T02070187  RH  093%=      5-min Rain = 0
KGHS 251550Z 15017G23KT 21/19 A3001 RMK A01 T02070187  RH  093%=      5-min Rain = 0
KGHS 251555Z 15017KT 21/19 A3001 RMK A01 T02070187  RH  093%=      5-min Rain = 0
KGHS 251600Z 15015KT 21/19 A3001 RMK A01 T02070187  RH  093%=      5-min Rain = 0
KGHS 251605Z 15015G20KT 21/19 A3001 RMK A01 T02070187  RH  093%=      5-min Rain = 0
KGHS 251610Z 16015G21KT 21/19 A3001 RMK A01 T02080187  RH  093%=      5-min Rain = 0
KGHS 251615Z 16015G20KT 21/19 A3001 RMK A01 T02080187  RH  093%=      5-min Rain = 0
KGHS 251620Z 16017KT 21/19 A3001 RMK A01 T02080187  RH  093%=      5-min Rain = 0
KGHS 251625Z 15016G22KT 21/19 A3001 RMK A01 T02090188  RH  092%=      5-min Rain = 0
KGHS 251630Z 16018G28KT 21/19 A30 RMK A01 T02100187  RH  092%=      5-min Rain = 0
KGHS 251635Z 15019G27KT 21/19 A30 RMK A01 T02100188  RH  092%=      5-min Rain = 0
KGHS 251640Z 16018KT 21/19 A30 RMK A01 T02100188  RH  092%=      5-min Rain = 0
KGHS 251645Z 15017KT 21/19 A30 RMK A01 T02100188  RH  092%=      5-min Rain = 0
KGHS 251650Z 15017G22KT 21/19 A30 RMK A01 T02100188  RH  092%=      5-min Rain = 0
KGHS 251655Z 15017G22KT 21/19 A3001 RMK A01 T02110188  RH  092%=      5-min Rain = 0
KGHS 251700Z 16017G22KT 21/19 A3001 RMK A01 T02110189  RH  092%=      5-min Rain = 0
KGHS 251705Z 15016G24KT 21/19 A3001 RMK A01 T02110189  RH  092%=      5-min Rain = 0
KGHS 251710Z 15014KT 21/19 A3001 RMK A01 T02130190  RH  092%=      5-min Rain = 0
KGHS 251715Z 15015KT 21/19 A3001 RMK A01 T02130190  RH  091%=      5-min Rain = 0
KGHS 251720Z 15015G21KT 21/19 A3001 RMK A01 T02140189  RH  091%=      5-min Rain = 0
KGHS 251725Z 15017KT 21/19 A30 RMK A01 T02140189  RH  091%=      5-min Rain = 0
KGHS 251730Z 16015G21KT 22/19 A30 RMK A01 T02150190  RH  090%=      5-min Rain = 0
KGHS 251735Z 15013KT 22/19 A30 RMK A01 T02160191  RH  090%=      5-min Rain = 0
KGHS 251740Z 15012G17KT 22/19 A30 RMK A01 T02170191  RH  090%=      5-min Rain = 0
KGHS 251745Z 14014KT 22/19 A30 RMK A01 T02180191  RH  089%=      5-min Rain = 0
KGHS 251750Z 15013KT 22/19 A30 RMK A01 T02190191  RH  089%=      5-min Rain = 0
KGHS 251755Z 14013KT 22/19 A30 RMK A01 T02200192  RH  089%=      5-min Rain = 0
KGHS 251800Z 14012KT 22/19 A2999 RMK A01 T02200192  RH  089%=      5-min Rain = 0
KGHS 251805Z 15012KT 22/19 A2999 RMK A01 T02210192  RH  088%=      5-min Rain = 0
KGHS 251810Z 14013KT 22/19 A2999 RMK A01 T02220192  RH  088%=      5-min Rain = 0
KGHS 251815Z 15013KT 22/19 A2999 RMK A01 T02220193  RH  088%=      5-min Rain = 0
KGHS 251820Z 15012G17KT 22/19 A2999 RMK A01 T02230193  RH  088%=      5-min Rain = 0
KGHS 251825Z 14015G21KT 22/19 A2998 RMK A01 T02240193  RH  087%=      5-min Rain = 0
KGHS 251830Z 15013G18KT 22/19 A2998 RMK A01 T02240193  RH  087%=      5-min Rain = 0
KGHS 251835Z 14014KT 22/19 A2998 RMK A01 T02240193  RH  087%=      5-min Rain = 0
KGHS 251840Z 14013KT 23/19 A2998 RMK A01 T02250194  RH  087%=      5-min Rain = 0
KGHS 251845Z 15014KT 23/19 A2998 RMK A01 T02260194  RH  087%=      5-min Rain = 0
KGHS 251850Z 15014KT 23/19 A2998 RMK A01 T02260194  RH  087%=      5-min Rain = 0
KGHS 251855Z 15011KT 23/20 A2997 RMK A01 T02270195  RH  087%=      5-min Rain = 0
KGHS 251900Z 15011KT 23/20 A2997 RMK A01 T02280196  RH  087%=      5-min Rain = 0
KGHS 251905Z 15012KT 23/20 A2997 RMK A01 T02300197  RH  086%=      5-min Rain = 0
KGHS 251910Z 15013G20KT 23/20 A2996 RMK A01 T02310197  RH  086%=      5-min Rain = 0
KGHS 251915Z 15014KT 23/20 A2996 RMK A01 T02340198  RH  085%=      5-min Rain = 0
KGHS 251920Z 15015KT 24/20 A2996 RMK A01 T02370198  RH  083%=      5-min Rain = 0
KGHS 251925Z 16015G20KT 24/20 A2996 RMK A01 T02390197  RH  082%=      5-min Rain = 0
KGHS 251930Z 16014G24KT 24/20 A2995 RMK A01 T02430199  RH  081%=      5-min Rain = 0
KGHS 251935Z 16019G25KT 25/20 A2995 RMK A01 T02460197  RH  079%=      5-min Rain = 0
KGHS 251940Z 15018G25KT 25/20 A2994 RMK A01 T02500198  RH  077%=      5-min Rain = 0
KGHS 251945Z 15021G26KT 25/20 A2994 RMK A01 T02520197  RH  076%=      5-min Rain = 0
KGHS 251950Z 15018G24KT 25/20 A2994 RMK A01 T02530198  RH  076%=      5-min Rain = 0
KGHS 251955Z 15020G25KT 25/20 A2993 RMK A01 T02540196  RH  074%=      5-min Rain = 0
KGHS 252000Z 16020G28KT 25/20 A2993 RMK A01 T02540195  RH  074%=      5-min Rain = 0
KGHS 252005Z 15020G27KT 26/20 A2993 RMK A01 T02580196  RH  073%=      5-min Rain = 0
KGHS 252010Z 15021G26KT 26/19 A2993 RMK A01 T02590194  RH  071%=      5-min Rain = 0
KGHS 252015Z 16019G24KT 26/20 A2993 RMK A01 T02590195  RH  072%=      5-min Rain = 0
KGHS 252020Z 16018G23KT 26/20 A2993 RMK A01 T02610196  RH  072%=      5-min Rain = 0
KGHS 252025Z 15020G25KT 26/20 A2993 RMK A01 T02620195  RH  071%=      5-min Rain = 0
KGHS 252030Z 17021G28KT 26/19 A2993 RMK A01 T02610194  RH  070%=      5-min Rain = 0
KGHS 252035Z 17020G28KT 26/20 A2993 RMK A01 T02640195  RH  070%=      5-min Rain = 0
KGHS 252040Z 16017G23KT 27/20 A2992 RMK A01 T02700198  RH  069%=      5-min Rain = 0
KGHS 252045Z 16019G27KT 27/20 A2992 RMK A01 T02710197  RH  067%=      5-min Rain = 0
KGHS 252050Z 16019KT 27/20 A2992 RMK A01 T02690196  RH  068%=      5-min Rain = 0
KGHS 252055Z 16019G26KT 27/20 A2992 RMK A01 T02720196  RH  067%=      5-min Rain = 0
KGHS 252100Z 15020G29KT 27/19 A2992 RMK A01 T02690194  RH  067%=      5-min Rain = 0
KGHS 252105Z 17020G26KT 27/19 A2993 RMK A01 T02680193  RH  067%=      5-min Rain = 0
KGHS 252110Z 17017G23KT 27/19 A2993 RMK A01 T02690194  RH  068%=      5-min Rain = 0
KGHS 252115Z 17021G29KT 27/19 A2993 RMK A01 T02700192  RH  066%=      5-min Rain = 0
KGHS 252120Z 15020G26KT 27/20 A2993 RMK A01 T02700196  RH  068%=      5-min Rain = 0
KGHS 252125Z 15019G25KT 27/20 A2992 RMK A01 T02700197  RH  068%=      5-min Rain = 0
KGHS 252130Z 16015G20KT 27/20 A2992 RMK A01 T02670196  RH  069%=      5-min Rain = 0
KGHS 252135Z 15016G22KT 26/20 A2992 RMK A01 T02630195  RH  070%=      5-min Rain = 0
KGHS 252140Z 16016G21KT 26/19 A2992 RMK A01 T02610194  RH  071%=      5-min Rain = 0
KGHS 252145Z 15019G26KT 26/19 A299 RMK A01 T02590194  RH  071%=      5-min Rain = 0
KGHS 252150Z 16020G27KT 26/19 A2989 RMK A01 T02570192  RH  071%=      5-min Rain = 0
KGHS 252155Z 16021G27KT 26/19 A2989 RMK A01 T02560191  RH  071%=      5-min Rain = 0
KGHS 252200Z 15024G38KT 26/19 A2988 RMK A01 T02560189  RH  070%=      5-min Rain = 0
KGHS 252205Z 16025G33KT 26/19 A2987 RMK A01 T02560188  RH  070%=      5-min Rain = 0
KGHS 252210Z 16023G33KT 26/19 A2988 RMK A01 T02560187  RH  069%=      5-min Rain = 0
KGHS 252215Z 16021G28KT 26/19 A2989 RMK A01 T02560187  RH  069%=      5-min Rain = 0
KGHS 252220Z 16017G24KT 26/19 A2989 RMK A01 T02560187  RH  070%=      5-min Rain = 0
KGHS 252225Z 16016G24KT 26/19 A2989 RMK A01 T02560187  RH  069%=      5-min Rain = 0
KGHS 252230Z 16015KT 26/19 A299 RMK A01 T02580188  RH  069%=      5-min Rain = 0
KGHS 252235Z 16013KT 26/19 A299 RMK A01 T02630190  RH  068%=      5-min Rain = 0
KGHS 252240Z 15020G31KT 27/19 A299 RMK A01 T02690189  RH  065%=      5-min Rain = 0
KGHS 252245Z 16023G30KT 27/19 A2989 RMK A01 T02700188  RH  064%=      5-min Rain = 0
KGHS 252250Z 16024G33KT 27/19 A2989 RMK A01 T02700187  RH  064%=      5-min Rain = 0
KGHS 252255Z 16024G33KT 27/19 A2989 RMK A01 T02710186  RH  063%=      5-min Rain = 0
KGHS 252300Z 16021G29KT 27/19 A2989 RMK A01 T02720187  RH  063%=      5-min Rain = 0
KGHS 252305Z 16018G24KT 27/19 A2989 RMK A01 T02720189  RH  064%=      5-min Rain = 0
KGHS 252310Z 16026G36KT 27/19 A2988 RMK A01 T02730188  RH  063%=      5-min Rain = 0
KGHS 252315Z 17025G35KT 27/18 A2987 RMK A01 T02720183  RH  061%=      5-min Rain = 0
KGHS 252320Z 17026G37KT 27/18 A2987 RMK A01 T02700181  RH  061%=      5-min Rain = 0
KGHS 252325Z 17020G27KT 27/18 A2987 RMK A01 T02700184  RH  063%=      5-min Rain = 0
KGHS 252330Z 17025G32KT 27/18 A2988 RMK A01 T02700183  RH  062%=      5-min Rain = 0
KGHS 252335Z 17024G33KT 27/18 A2988 RMK A01 T02690184  RH  063%=      5-min Rain = 0
KGHS 252340Z 16022G30KT 27/19 A2989 RMK A01 T02690185  RH  063%=      5-min Rain = 0
KGHS 252345Z 17024G33KT 27/18 A2989 RMK A01 T02690183  RH  063%=      5-min Rain = 0
KGHS 252350Z 16026G34KT 27/18 A2989 RMK A01 T02690182  RH  062%=      5-min Rain = 0
KGHS 252355Z 17023G31KT 27/18 A299 RMK A01 T02680181  RH  062%=      5-min Rain = 0
KGHS 260000Z 16024G30KT 27/18 A299 RMK A01 T02670182  RH  063%=      5-min Rain = 0
KGHS 260005Z 16021G29KT 27/18 A299 RMK A01 T02660183  RH  063%=      5-min Rain = 0
KGHS 260010Z 16020G27KT 27/18 A299 RMK A01 T02660183  RH  064%=      5-min Rain = 0
KGHS 260015Z 16019G25KT 27/18 A299 RMK A01 T02650183  RH  064%=      5-min Rain = 0
KGHS 260020Z 17018G26KT 27/18 A2991 RMK A01 T02650184  RH  064%=      5-min Rain = 0
KGHS 260025Z 17021G31KT 27/18 A2991 RMK A01 T02650182  RH  064%=      5-min Rain = 0
KGHS 260030Z 16018G25KT 26/18 A2991 RMK A01 T02640182  RH  064%=      5-min Rain = 0
KGHS 260035Z 17021G27KT 26/18 A299 RMK A01 T02640181  RH  064%=      5-min Rain = 0
KGHS 260040Z 17017G23KT 26/18 A2991 RMK A01 T02630182  RH  064%=      5-min Rain = 0
KGHS 260045Z 16018G24KT 26/18 A2991 RMK A01 T02620182  RH  065%=      5-min Rain = 0
KGHS 260050Z 17017G25KT 26/18 A2991 RMK A01 T02610183  RH  066%=      5-min Rain = 0
KGHS 260055Z 17016G21KT 26/18 A2992 RMK A01 T02600183  RH  066%=      5-min Rain = 0
KGHS 260100Z 16017G23KT 26/18 A2992 RMK A01 T02590183  RH  066%=      5-min Rain = 0
KGHS 260105Z 16015G20KT 26/18 A2993 RMK A01 T02580184  RH  067%=      5-min Rain = 0
KGHS 260110Z 16013KT 26/18 A2993 RMK A01 T02570184  RH  068%=      5-min Rain = 0
KGHS 260115Z 16013G19KT 26/18 A2993 RMK A01 T02550184  RH  068%=      5-min Rain = 0
KGHS 260120Z 16011G16KT 25/18 A2993 RMK A01 T02540184  RH  069%=      5-min Rain = 0
KGHS 260125Z 16010KT 25/19 A2993 RMK A01 T02530185  RH  070%=      5-min Rain = 0
KGHS 260130Z 16010G16KT 25/19 A2993 RMK A01 T02510185  RH  070%=      5-min Rain = 0
KGHS 260135Z 16010KT 25/18 A2993 RMK A01 T02500184  RH  071%=      5-min Rain = 0
KGHS 260140Z 16010KT 25/19 A2994 RMK A01 T02490185  RH  071%=      5-min Rain = 0
KGHS 260145Z 16010KT 25/19 A2994 RMK A01 T02470185  RH  072%=      5-min Rain = 0
KGHS 260150Z 16011KT 25/18 A2994 RMK A01 T02460184  RH  072%=      5-min Rain = 0
KGHS 260155Z 16011KT 25/18 A2995 RMK A01 T02450184  RH  073%=      5-min Rain = 0
KGHS 260200Z 15011KT 24/18 A2995 RMK A01 T02440184  RH  073%=      5-min Rain = 0
KGHS 260205Z 15010KT 24/18 A2995 RMK A01 T02430183  RH  073%=      5-min Rain = 0
KGHS 260210Z 15010KT 24/18 A2995 RMK A01 T02420183  RH  074%=      5-min Rain = 0
KGHS 260215Z 14009KT 24/18 A2995 RMK A01 T02410183  RH  074%=      5-min Rain = 0
KGHS 260220Z 13008KT 24/18 A2995 RMK A01 T02390183  RH  075%=      5-min Rain = 0
KGHS 260225Z 13009KT 24/18 A2994 RMK A01 T02380183  RH  075%=      5-min Rain = 0
KGHS 260230Z 13009KT 24/18 A2994 RMK A01 T02380183  RH  075%=      5-min Rain = 0
KGHS 260235Z 13009KT 24/18 A2994 RMK A01 T02370183  RH  076%=      5-min Rain = 0
KGHS 260240Z 13009KT 24/18 A2993 RMK A01 T02360183  RH  076%=      5-min Rain = 0
KGHS 260245Z 13009KT 24/18 A2993 RMK A01 T02350183  RH  076%=      5-min Rain = 0
KGHS 260250Z 14011KT 23/18 A2993 RMK A01 T02340183  RH  077%=      5-min Rain = 0
KGHS 260255Z 14011KT 23/18 A2993 RMK A01 T02330182  RH  077%=      5-min Rain = 0
KGHS 260300Z 14012KT 23/18 A2993 RMK A01 T02320182  RH  078%=      5-min Rain = 0
KGHS 260305Z 14012KT 23/18 A2992 RMK A01 T02310183  RH  078%=      5-min Rain = 0
KGHS 260310Z 14012KT 23/18 A2992 RMK A01 T02300183  RH  079%=      5-min Rain = 0
KGHS 260315Z 14012KT 23/18 A2992 RMK A01 T02290182  RH  079%=      5-min Rain = 0
KGHS 260320Z 14013KT 23/18 A2992 RMK A01 T02280182  RH  079%=      5-min Rain = 0
KGHS 260325Z 15013KT 23/18 A2992 RMK A01 T02280181  RH  079%=      5-min Rain = 0
KGHS 260330Z 16010G15KT 23/18 A2993 RMK A01 T02280181  RH  079%=      5-min Rain = 0
KGHS 260335Z 17009G15KT 23/18 A2993 RMK A01 T02260180  RH  079%=      5-min Rain = 0
KGHS 260340Z 18011G16KT 23/18 A2994 RMK A01 T02300177  RH  076%=      5-min Rain = 0
KGHS 260345Z 19008G14KT 23/18 A2994 RMK A01 T02340177  RH  074%=      5-min Rain = 0
KGHS 260350Z 20006G11KT 24/18 A2995 RMK A01 T02350177  RH  074%=      5-min Rain = 0
KGHS 260355Z 22004KT 23/18 A2995 RMK A01 T02340178  RH  075%=      5-min Rain = 0
KGHS 260400Z 28003KT 23/18 A2995 RMK A01 T02310179  RH  076%=      5-min Rain = 0
KGHS 260405Z 24002KT 23/18 A2995 RMK A01 T02290178  RH  077%=      5-min Rain = 0
KGHS 260410Z 12001KT 23/18 A2995 RMK A01 T02280177  RH  077%=      5-min Rain = 0
KGHS 260415Z 15001KT 23/18 A2995 RMK A01 T02280176  RH  077%=      5-min Rain = 0
KGHS 260420Z 25001KT 23/18 A2995 RMK A01 T02270176  RH  077%=      5-min Rain = 0
KGHS 260425Z 19002KT 23/18 A2995 RMK A01 T02280175  RH  076%=      5-min Rain = 0
KGHS 260430Z 16004KT 23/18 A2995 RMK A01 T02290175  RH  075%=      5-min Rain = 0
KGHS 260435Z 15006KT 23/18 A2995 RMK A01 T02300175  RH  075%=      5-min Rain = 0
KGHS 260440Z 16007KT 23/17 A2995 RMK A01 T02300174  RH  075%=      5-min Rain = 0
KGHS 260445Z 17007KT 23/17 A2995 RMK A01 T02300174  RH  074%=      5-min Rain = 0
KGHS 260450Z 17008KT 23/17 A2995 RMK A01 T02290174  RH  075%=      5-min Rain = 0
KGHS 260455Z 17007KT 23/17 A2995 RMK A01 T02280174  RH  076%=      5-min Rain = 0

Page generated in 0.009 seconds.